createdAt,value
2022-11-16T00:04:12.081Z,99256.25
2022-11-16T00:09:27.149Z,99243.67
2022-11-16T00:14:33.078Z,99245.50
2022-11-16T00:19:36.312Z,99245.90
2022-11-16T00:24:39.912Z,99243.46
2022-11-16T00:29:43.032Z,99252.30
2022-11-16T00:34:46.409Z,99253.95
2022-11-16T00:39:49.724Z,99257.66
2022-11-16T00:44:53.320Z,99253.38
2022-11-16T00:49:56.803Z,99243.71
2022-11-16T00:55:00.230Z,99239.55
2022-11-16T01:00:05.178Z,99236.07
2022-11-16T01:05:10.403Z,99235.70
2022-11-16T01:10:15.997Z,99231.72
2022-11-16T01:15:21.607Z,99222.03
2022-11-16T01:20:27.732Z,99219.84
2022-11-16T01:25:31.211Z,99212.86
2022-11-16T01:30:34.420Z,99226.54
2022-11-16T01:35:37.672Z,99226.91
2022-11-16T01:40:41.358Z,99210.60
2022-11-16T01:45:45.404Z,99208.34
2022-11-16T01:50:49.699Z,99206.84
2022-11-16T01:55:53.504Z,99200.85
2022-11-16T02:00:56.819Z,99200.61
2022-11-16T02:06:23.406Z,99199.15
2022-11-16T02:11:44.247Z,99182.63
2022-11-16T02:16:53.717Z,99171.64
2022-11-16T02:22:07.602Z,99169.24
2022-11-16T02:27:33.791Z,99168.30
2022-11-16T02:32:46.931Z,99162.96
2022-11-16T02:37:59.863Z,99158.27
2022-11-16T02:43:13.962Z,99152.42
2022-11-16T02:48:26.737Z,99148.36
2022-11-16T02:53:37.731Z,99142.52
2022-11-16T02:58:41.123Z,99140.16
2022-11-16T03:03:50.840Z,99140.94
2022-11-16T03:09:06.322Z,99131.58
2022-11-16T03:14:18.819Z,99126.41
2022-11-16T03:19:41.776Z,99131.41
2022-11-16T03:24:45.828Z,99135.52
2022-11-16T03:29:59.079Z,99132.59
2022-11-16T03:35:10.448Z,99135.77
2022-11-16T03:40:16.385Z,99135.10
2022-11-16T03:45:20.902Z,99132.02
2022-11-16T03:50:24.912Z,99134.00
2022-11-16T03:55:28.367Z,99140.59
2022-11-16T04:00:32.056Z,99139.39
2022-11-16T04:05:53.916Z,99128.30
2022-11-16T04:11:15.951Z,99120.02
2022-11-16T04:16:38.859Z,99118.27
2022-11-16T04:22:07.596Z,99116.84
2022-11-16T04:27:34.019Z,99109.61
2022-11-16T04:32:56.272Z,99103.17
2022-11-16T04:38:00.234Z,99101.66
2022-11-16T04:43:05.162Z,99106.45
2022-11-16T04:48:09.515Z,99110.73
2022-11-16T04:53:13.708Z,99116.01
2022-11-16T04:58:17.317Z,99116.34
2022-11-16T05:03:21.495Z,99103.10
2022-11-16T05:08:25.823Z,99105.48
2022-11-16T05:13:29.329Z,99099.39
2022-11-16T05:18:33.287Z,99101.17
2022-11-16T05:23:56.185Z,99098.48
2022-11-16T05:28:59.932Z,99095.67
2022-11-16T05:34:03.799Z,99087.89
2022-11-16T05:39:07.580Z,99089.38
2022-11-16T05:44:11.343Z,99086.05
2022-11-16T05:49:14.754Z,99077.31
2022-11-16T05:54:27.889Z,99077.16
2022-11-16T05:59:31.565Z,99080.38
2022-11-16T06:04:34.965Z,99078.87
2022-11-16T06:09:38.664Z,99077.28
2022-11-16T06:14:42.270Z,99072.79
2022-11-16T06:19:46.279Z,99075.16
2022-11-16T06:24:49.846Z,99073.70
2022-11-16T06:29:53.911Z,99077.53
2022-11-16T06:34:57.295Z,99066.88
2022-11-16T06:40:01.305Z,99058.92
2022-11-16T06:45:05.930Z,99064.91
2022-11-16T06:50:11.497Z,99066.02
2022-11-16T06:55:16.332Z,99063.72
2022-11-16T07:00:20.480Z,99061.52
2022-11-16T07:05:24.208Z,99055.19
2022-11-16T07:10:28.073Z,99054.05
2022-11-16T07:15:34.150Z,99048.16
2022-11-16T07:20:39.164Z,99039.55
2022-11-16T07:25:47.270Z,99044.45
2022-11-16T07:30:51.361Z,99041.69
2022-11-16T07:35:54.979Z,99044.15
2022-11-16T07:41:06.378Z,99042.36
2022-11-16T07:51:39.145Z,99047.96
2022-11-16T07:56:42.999Z,99046.63
2022-11-16T08:01:50.102Z,99044.20
2022-11-16T08:06:53.990Z,99042.80
2022-11-16T08:11:57.665Z,99042.13
2022-11-16T08:17:01.146Z,99039.77
2022-11-16T08:22:04.650Z,99042.30
2022-11-16T08:27:08.725Z,99034.79
2022-11-16T08:32:12.395Z,99031.69
2022-11-16T08:37:16.340Z,99033.09
2022-11-16T08:42:20.477Z,99034.00
2022-11-16T08:47:24.296Z,99033.52
2022-11-16T08:52:27.710Z,99034.14
2022-11-16T08:57:31.661Z,99036.33
2022-11-16T09:02:35.526Z,99032.96
2022-11-16T09:07:40.488Z,99034.19
2022-11-16T09:12:44.734Z,99039.20
2022-11-16T09:17:48.983Z,99041.40
2022-11-16T09:22:52.571Z,99038.77
2022-11-16T09:27:57.408Z,99039.63
2022-11-16T09:33:01.501Z,99038.95
2022-11-16T09:38:05.057Z,99032.30
2022-11-16T09:43:27.906Z,99035.84
2022-11-16T09:48:36.892Z,99027.02
2022-11-16T09:54:07.725Z,99023.87
2022-11-16T09:59:26.113Z,99026.39
2022-11-16T10:04:39.355Z,99020.25
2022-11-16T10:09:46.016Z,99016.94
2022-11-16T10:14:53.807Z,99011.20
2022-11-16T10:20:30.206Z,99002.38
2022-11-16T10:26:04.614Z,98999.45
2022-11-16T10:31:39.614Z,98991.98
2022-11-16T10:36:44.866Z,98991.20
2022-11-16T10:41:51.171Z,98988.92
2022-11-16T10:47:22.814Z,98984.60
2022-11-16T10:52:27.265Z,98984.29
2022-11-16T10:58:04.998Z,98979.84
2022-11-16T11:03:11.258Z,98973.28
2022-11-16T11:08:26.684Z,98977.52
2022-11-16T11:13:30.436Z,98976.73
2022-11-16T11:18:35.079Z,98972.63
2022-11-16T11:23:51.359Z,98971.42
2022-11-16T11:28:56.680Z,98966.47
2022-11-16T11:34:11.025Z,98964.85
2022-11-16T11:39:21.615Z,98970.20
2022-11-16T11:44:50.257Z,98968.02
2022-11-16T11:50:22.175Z,98968.21
2022-11-16T11:55:28.053Z,98977.09
2022-11-16T12:00:59.541Z,98974.59
2022-11-16T12:06:28.046Z,98977.11
2022-11-16T12:11:42.493Z,98976.99
2022-11-16T12:17:19.667Z,98969.04
2022-11-16T12:22:58.519Z,98959.77
2022-11-16T12:28:18.202Z,98960.68
2022-11-16T12:33:47.296Z,98957.89
2022-11-16T12:39:28.384Z,98961.16
2022-11-16T12:44:59.089Z,98968.95
2022-11-16T12:50:06.848Z,98978.05
2022-11-16T12:55:40.528Z,98978.45
2022-11-16T13:01:11.941Z,98977.86
2022-11-16T13:06:44.233Z,98968.80
2022-11-16T13:11:58.692Z,98965.37
2022-11-16T13:17:05.414Z,98967.05
2022-11-16T13:22:22.728Z,98970.98
2022-11-16T13:27:32.420Z,98969.09
2022-11-16T13:32:54.297Z,98962.50
2022-11-16T13:38:01.210Z,98961.56
2022-11-16T13:43:11.691Z,98963.41
2022-11-16T13:48:25.973Z,98957.54
2022-11-16T13:59:00.548Z,98947.31
2022-11-16T14:04:44.717Z,98945.44
2022-11-16T14:09:50.382Z,98945.43
2022-11-16T14:15:20.744Z,98940.12
2022-11-16T14:20:54.057Z,98941.95
2022-11-16T14:26:48.301Z,98945.71
2022-11-16T14:31:54.060Z,98938.45
2022-11-16T14:36:59.189Z,98940.62
2022-11-16T14:42:07.583Z,98941.89
2022-11-16T14:47:29.925Z,98941.67
2022-11-16T14:52:50.339Z,98938.97
2022-11-16T14:58:20.198Z,98939.61
2022-11-16T15:03:33.009Z,98946.59
2022-11-16T15:09:04.162Z,98948.33
2022-11-16T15:14:11.541Z,98948.14
2022-11-16T15:19:16.954Z,98957.00
2022-11-16T15:24:35.762Z,98965.14
2022-11-16T15:29:40.691Z,98965.20
2022-11-16T15:34:55.535Z,98969.70
2022-11-16T15:40:01.857Z,98975.54
2022-11-16T15:45:23.273Z,98979.32
2022-11-16T15:50:28.434Z,98986.98
2022-11-16T15:55:34.696Z,98987.39
2022-11-16T16:00:38.740Z,98993.23
2022-11-16T16:05:42.704Z,98998.95
2022-11-16T16:10:59.585Z,99002.50
2022-11-16T16:16:26.923Z,99007.27
2022-11-16T16:21:43.413Z,99003.19
2022-11-16T16:26:47.531Z,99006.44
2022-11-16T16:31:51.874Z,98999.29
2022-11-16T16:36:56.233Z,98999.51
2022-11-16T16:42:00.890Z,98996.76
2022-11-16T16:47:06.291Z,98995.33
2022-11-16T16:52:13.902Z,98994.28
2022-11-16T16:57:22.086Z,98991.66
2022-11-16T17:02:31.253Z,98992.20
2022-11-16T17:07:36.160Z,98993.79
2022-11-16T17:12:43.713Z,99001.84
2022-11-16T17:17:50.111Z,99005.92
2022-11-16T17:23:00.656Z,99002.69
2022-11-16T17:28:06.867Z,99005.92
2022-11-16T17:33:11.140Z,99004.91
2022-11-16T17:38:16.744Z,99008.23
2022-11-16T17:43:20.778Z,99011.17
2022-11-16T17:48:25.554Z,99015.31
2022-11-16T17:53:32.640Z,99012.38
2022-11-16T17:58:36.721Z,99020.27
2022-11-16T18:03:40.902Z,99012.91
2022-11-16T18:08:45.456Z,99016.27
2022-11-16T18:13:54.677Z,99015.13
2022-11-16T18:19:01.283Z,99006.06
2022-11-16T18:24:07.050Z,99009.36
2022-11-16T18:29:16.020Z,99012.50
2022-11-16T18:34:21.663Z,99016.14
2022-11-16T18:39:25.801Z,99017.75
2022-11-16T18:44:31.216Z,99016.39
2022-11-16T18:49:35.582Z,99017.44
2022-11-16T18:54:40.397Z,99021.56
2022-11-16T18:59:44.970Z,99022.62
2022-11-16T19:04:49.744Z,99022.59
2022-11-16T19:09:54.877Z,99018.65
2022-11-16T19:14:59.690Z,99017.43
2022-11-16T19:20:04.426Z,99021.73
2022-11-16T19:25:10.632Z,99019.98
2022-11-16T19:30:15.400Z,99023.51
2022-11-16T19:35:20.439Z,99014.96
2022-11-16T19:40:25.348Z,99012.52
2022-11-16T19:45:29.819Z,99015.33
2022-11-16T19:50:35.973Z,99010.11
2022-11-16T19:55:41.614Z,99010.92
2022-11-16T20:00:46.214Z,99003.88
2022-11-16T20:05:50.686Z,99006.71
2022-11-16T20:10:54.280Z,99007.13
2022-11-16T20:16:02.072Z,99007.21
2022-11-16T20:21:08.324Z,99006.17
2022-11-16T20:26:15.888Z,99009.26
2022-11-16T20:31:32.546Z,99012.52
2022-11-16T20:36:37.541Z,99011.88
2022-11-16T20:41:42.312Z,99007.91
2022-11-16T20:46:46.663Z,99007.38
2022-11-16T20:51:51.756Z,99015.16
2022-11-16T20:56:56.932Z,99014.75
2022-11-16T21:02:01.126Z,99005.92
2022-11-16T21:07:04.707Z,99005.45
2022-11-16T21:12:30.883Z,99004.59
2022-11-16T21:17:34.636Z,99001.44
2022-11-16T21:22:38.892Z,99009.13
2022-11-16T21:27:43.198Z,99011.06
2022-11-16T21:32:46.972Z,99010.58
2022-11-16T21:37:50.465Z,99011.35
2022-11-16T21:42:54.080Z,99007.70
2022-11-16T21:47:58.630Z,99007.06
2022-11-16T21:53:02.481Z,99002.11
2022-11-16T21:58:06.666Z,98997.14
2022-11-16T22:03:10.706Z,99005.96
2022-11-16T22:08:14.635Z,99005.72
2022-11-16T22:13:19.929Z,99004.31
2022-11-16T22:18:24.005Z,99009.89
2022-11-16T22:23:29.184Z,99013.93
2022-11-16T22:28:33.921Z,99017.17
2022-11-16T22:33:38.190Z,99016.05
2022-11-16T22:38:42.217Z,99014.86
2022-11-16T22:43:45.721Z,99016.58
2022-11-16T22:48:49.147Z,99018.43
2022-11-16T22:53:54.600Z,99018.20
2022-11-16T22:58:58.786Z,99013.13
2022-11-16T23:04:02.816Z,99008.30
2022-11-16T23:09:06.751Z,98999.85
2022-11-16T23:14:35.092Z,98993.45
2022-11-16T23:19:57.296Z,98994.06
2022-11-16T23:25:20.489Z,98994.30
2022-11-16T23:30:24.506Z,98990.49
2022-11-16T23:35:29.247Z,98985.16
2022-11-16T23:40:37.553Z,98984.51
2022-11-16T23:45:43.035Z,98985.20
2022-11-16T23:50:50.178Z,98987.21
2022-11-16T23:55:54.290Z,98984.95
